Time;durP1;ratioP1;P1;durP2;ratioP2;P2;SDS_P1;SDS_P2;PMS_P1;PMS_P2;Temp;Humidity;BMP_temperature;BMP_pressure;BME280_temperature;BME280_humidity;BME280_pressure;Samples;Min_cycle;Max_cycle;Signal;HPM_P1;HPM_P2
2023/09/11 00:01:59;;;;;;;1032.05;111.20;;;18.40;99.90;;;17.56;100.00;101298.75;4941561;29;20028;-75
2023/09/11 00:04:25;;;;;;;901.30;105.15;;;18.40;99.90;;;17.47;100.00;101294.84;4943638;28;20039;-74
2023/09/11 00:06:50;;;;;;;927.50;102.18;;;18.30;99.90;;;17.39;100.00;101286.56;4944812;29;20034;-75
2023/09/11 00:09:16;;;;;;;900.03;101.53;;;18.30;99.90;;;17.43;100.00;101288.06;4962110;28;20409;-74
2023/09/11 00:11:42;;;;;;;955.58;106.25;;;18.30;99.90;;;17.37;100.00;101286.66;4960821;28;20042;-76
2023/09/11 00:14:10;;;;;;;1281.43;129.85;;;18.30;99.90;;;17.37;100.00;101291.13;4928510;29;20043;-74
2023/09/11 00:16:35;;;;;;;976.10;110.07;;;18.20;99.90;;;17.28;100.00;101279.28;4943842;28;20093;-76
2023/09/11 00:19:01;;;;;;;663.10;91.10;;;18.20;99.90;;;17.22;100.00;101285.84;4943578;29;20521;-75
2023/09/11 00:21:27;;;;;;;947.58;104.82;;;18.10;99.90;;;17.12;100.00;101278.56;4944269;28;20501;-74
2023/09/11 00:23:52;;;;;;;823.38;95.45;;;18.10;99.90;;;17.16;100.00;101282.75;4960618;28;20038;-76
2023/09/11 00:26:18;;;;;;;820.17;96.03;;;18.10;99.90;;;17.20;100.00;101281.59;4943567;29;20031;-74
2023/09/11 00:28:44;;;;;;;740.20;91.43;;;18.10;99.90;;;17.23;100.00;101273.38;4946483;29;20517;-76
2023/09/11 00:31:09;;;;;;;683.65;89.55;;;18.10;99.90;;;17.28;100.00;101273.06;4958405;28;20044;-74
2023/09/11 00:33:38;;;;;;;337.92;71.68;;;18.10;99.90;;;17.29;100.00;101265.00;4944868;29;20032;-75
2023/09/11 00:36:04;;;;;;;619.90;87.90;;;18.10;99.90;;;17.32;100.00;101266.59;4950122;28;20390;-75
2023/09/11 00:38:30;;;;;;;1137.13;108.05;;;18.20;99.90;;;17.32;100.00;101267.47;4928683;29;20435;-74
2023/09/11 00:40:55;;;;;;;1014.70;106.15;;;18.20;99.90;;;17.37;100.00;101265.34;4945431;28;20043;-74
2023/09/11 00:43:21;;;;;;;875.20;103.25;;;18.20;99.90;;;17.39;100.00;101267.91;4944607;28;20036;-74
2023/09/11 00:45:50;;;;;;;1268.38;127.72;;;18.20;99.90;;;17.40;100.00;101261.63;4959732;28;20027;-73
2023/09/11 00:48:17;;;;;;;1037.20;107.32;;;18.20;99.90;;;17.40;100.00;101264.28;4927284;29;20035;-74
2023/09/11 00:50:44;;;;;;;892.92;100.75;;;18.20;99.90;;;17.40;100.00;101261.63;4959384;28;20036;-73
2023/09/11 00:53:11;;;;;;;1048.65;113.40;;;18.20;99.90;;;17.40;100.00;101258.97;4944170;29;20039;-74
2023/09/11 00:55:38;;;;;;;1104.55;114.47;;;18.20;99.90;;;17.38;100.00;101261.72;4962354;28;20465;-74
2023/09/11 00:58:04;;;;;;;1111.47;110.35;;;18.20;99.90;;;17.35;100.00;101251.28;4959542;28;20122;-75
2023/09/11 01:00:30;;;;;;;782.65;98.15;;;18.20;99.90;;;17.39;100.00;101252.78;4941319;29;20044;-73
2023/09/11 01:02:57;;;;;;;894.15;106.40;;;18.20;99.90;;;17.43;100.00;101256.97;4959470;28;20033;-74
2023/09/11 01:05:25;;;;;;;963.67;107.47;;;18.20;99.90;;;17.44;100.00;101244.50;4943221;28;20031;-74
2023/09/11 01:07:50;;;;;;;972.47;108.65;;;18.20;99.90;;;17.43;100.00;101256.97;4942798;29;20045;-75
2023/09/11 01:10:17;;;;;;;1016.33;111.15;;;18.20;99.90;;;17.42;100.00;101244.59;4943669;28;20036;-74
2023/09/11 01:12:42;;;;;;;858.65;103.63;;;18.20;99.90;;;17.45;100.00;101245.34;4958065;28;20075;-76
2023/09/11 01:15:09;;;;;;;1377.88;128.82;;;18.30;99.90;;;17.45;100.00;101234.69;4944563;28;20028;-75
2023/09/11 01:17:48;;;;;;;1373.68;126.53;;;18.20;99.90;;;17.40;100.00;101238.50;4942415;29;20035;-74
2023/09/11 01:20:48;;;;;;;952.38;108.85;;;18.20;99.90;;;17.45;100.00;101240.00;4943996;29;20035;-74
2023/09/11 01:24:01;;;;;;;1132.35;119.88;;;18.30;99.90;;;17.48;100.00;101229.19;4941959;28;20038;-73
2023/09/11 01:27:18;;;;;;;810.60;111.10;;;18.30;99.90;;;17.47;100.00;101227.47;4943258;29;20090;-74
2023/09/11 01:29:45;;;;;;;769.53;108.80;;;18.30;99.90;;;17.52;100.00;101228.88;4942812;29;20063;-75
2023/09/11 01:32:13;;;;;;;1136.53;124.53;;;18.30;99.90;;;17.52;100.00;101225.34;4960244;28;20110;-74
2023/09/11 01:34:38;;;;;;;629.45;100.07;;;18.30;99.90;;;17.48;100.00;101223.84;4942384;28;20054;-74
2023/09/11 01:37:04;;;;;;;1047.93;119.47;;;18.30;99.90;;;17.52;100.00;101218.22;4959476;28;20674;-74
2023/09/11 01:39:30;;;;;;;1350.45;133.35;;;18.30;99.90;;;17.49;100.00;101220.22;4941353;28;20063;-74
2023/09/11 01:42:07;;;;;;;1017.08;115.25;;;18.30;99.90;;;17.49;100.00;101213.06;4941675;29;20500;-74
2023/09/11 01:44:42;;;;;;;1253.65;126.63;;;18.30;99.90;;;17.43;100.00;101214.38;4927070;29;20047;-74
2023/09/11 01:47:09;;;;;;;1032.55;119.60;;;18.40;99.90;;;17.52;100.00;101214.69;4948625;28;20039;-74
2023/09/11 01:49:38;;;;;;;1225.15;130.48;;;18.40;99.90;;;17.55;100.00;101206.50;4957446;28;20036;-74
2023/09/11 01:52:06;;;;;;;270.67;82.10;;;18.40;99.90;;;17.61;100.00;101214.06;4956881;28;20050;-74
2023/09/11 01:54:35;;;;;;;964.70;114.13;;;18.40;99.90;;;17.68;100.00;101212.69;4941318;29;20031;-75
2023/09/11 01:57:01;;;;;;;793.55;108.07;;;18.50;99.90;;;17.72;100.00;101211.50;4958572;28;20047;-74
2023/09/11 01:59:27;;;;;;;449.10;96.90;;;18.50;99.90;;;17.72;100.00;101210.66;4940385;29;20032;-73
2023/09/11 02:01:53;;;;;;;926.72;119.53;;;18.50;99.90;;;17.72;100.00;101206.19;4942228;28;20027;-74
2023/09/11 02:04:19;;;;;;;791.20;113.90;;;18.50;99.90;;;17.74;100.00;101198.09;4944544;29;20413;-74
2023/09/11 02:06:44;;;;;;;656.53;108.63;;;18.50;99.90;;;17.74;100.00;101204.28;4942512;29;20050;-74
2023/09/11 02:09:10;;;;;;;694.92;99.85;;;18.50;99.90;;;17.78;100.00;101212.91;4925104;29;20027;-74
2023/09/11 02:11:36;;;;;;;724.08;100.68;;;18.60;99.90;;;17.79;100.00;101220.78;4925146;29;20118;-74
2023/09/11 02:14:01;;;;;;;1020.03;119.65;;;18.60;99.90;;;17.76;100.00;101215.66;4957118;28;20046;-75
2023/09/11 02:16:27;;;;;;;415.88;92.72;;;18.60;99.90;;;17.81;100.00;101215.34;4942221;28;20078;-75
2023/09/11 02:18:53;;;;;;;583.75;106.43;;;18.60;99.90;;;17.78;100.00;101211.09;4957548;28;20039;-74
2023/09/11 02:21:21;;;;;;;423.98;97.22;;;18.60;99.90;;;17.70;100.00;101210.75;4941993;29;20032;-74
2023/09/11 02:23:46;;;;;;;370.83;94.18;;;18.60;99.90;;;17.75;100.00;101216.66;4941017;28;20042;-74
2023/09/11 02:26:12;;;;;;;273.88;83.28;;;18.60;99.90;;;17.78;100.00;101221.75;4957993;28;20306;-75
2023/09/11 02:28:38;;;;;;;278.17;83.82;;;18.60;99.90;;;17.86;100.00;101217.72;4942411;28;20036;-74
2023/09/11 02:31:04;;;;;;;456.27;96.10;;;18.60;99.90;;;17.91;100.00;101210.28;4942718;28;20042;-75
2023/09/11 02:33:29;;;;;;;603.70;110.97;;;18.70;99.90;;;17.95;100.00;101211.78;4940357;29;20063;-73
2023/09/11 02:35:57;;;;;;;266.95;82.85;;;18.70;99.90;;;17.95;100.00;101209.13;4944976;29;20513;-74
2023/09/11 02:38:23;;;;;;;463.00;100.10;;;18.80;99.90;;;17.96;100.00;101214.31;4946332;29;20494;-75
2023/09/11 02:40:51;;;;;;;262.63;83.20;;;18.80;99.90;;;18.00;100.00;101206.97;4968381;28;20133;-74
2023/09/11 02:43:17;;;;;;;358.42;92.47;;;18.80;99.90;;;18.04;100.00;101211.13;4968432;28;20036;-75
2023/09/11 02:45:44;;;;;;;243.40;79.85;;;18.80;99.90;;;18.06;100.00;101203.88;4941264;28;20090;-73
2023/09/11 02:48:11;;;;;;;251.25;82.10;;;18.80;99.90;;;18.10;100.00;101209.81;4949218;28;20030;-74
2023/09/11 02:50:40;;;;;;;321.70;89.22;;;18.80;99.90;;;18.08;100.00;101204.63;4943307;29;20502;-73
2023/09/11 02:53:08;;;;;;;264.08;82.80;;;18.80;99.90;;;18.04;100.00;101203.13;4938746;28;20035;-77
2023/09/11 02:55:37;;;;;;;266.70;82.57;;;18.80;99.90;;;17.94;100.00;101204.72;4956048;28;20069;-74
2023/09/11 02:58:04;;;;;;;253.00;78.65;;;18.80;99.90;;;17.93;100.00;101200.38;4956736;28;20064;-74
2023/09/11 03:00:32;;;;;;;257.33;84.00;;;18.80;99.90;;;17.96;100.00;101203.66;4943380;29;20039;-73
2023/09/11 03:03:01;;;;;;;341.30;86.10;;;18.80;99.90;;;17.96;100.00;101201.00;4940746;29;20023;-75
2023/09/11 03:05:27;;;;;;;224.23;73.88;;;18.70;99.90;;;17.90;100.00;101203.22;4942669;28;20463;-76
2023/09/11 03:07:53;;;;;;;205.38;72.05;;;18.80;99.90;;;17.95;100.00;101201.13;4941045;29;20410;-74
2023/09/11 03:10:18;;;;;;;204.63;70.45;;;18.80;99.90;;;17.98;100.00;101199.06;4940280;28;20035;-75
2023/09/11 03:12:45;;;;;;;215.80;70.63;;;18.80;99.90;;;17.97;100.00;101204.50;4957865;28;20058;-74
2023/09/11 03:15:11;;;;;;;213.90;68.47;;;18.70;99.90;;;17.98;100.00;101207.06;4942571;28;20039;-74
2023/09/11 03:17:37;;;;;;;260.88;72.78;;;18.70;99.90;;;17.97;100.00;101204.50;4941403;28;20097;-75
2023/09/11 03:20:05;;;;;;;201.05;67.20;;;18.70;99.90;;;17.89;100.00;101198.88;4939570;29;20035;-74
2023/09/11 03:22:30;;;;;;;169.63;63.25;;;18.70;99.90;;;17.92;100.00;101196.00;4955164;28;20386;-73
2023/09/11 03:24:56;;;;;;;221.82;69.63;;;18.70;99.90;;;17.90;100.00;101193.41;4943283;28;20079;-72
2023/09/11 03:27:21;;;;;;;217.73;69.35;;;18.70;99.90;;;17.80;100.00;101197.69;4941258;29;20035;-74
2023/09/11 03:29:51;;;;;;;257.95;74.75;;;18.70;99.90;;;17.83;100.00;101201.00;4940553;28;20084;-74
2023/09/11 03:32:17;;;;;;;282.42;76.05;;;18.60;99.90;;;17.82;100.00;101201.13;4939747;28;20117;-75
2023/09/11 03:34:42;;;;;;;287.98;78.97;;;18.60;99.90;;;17.69;100.00;101192.22;4961942;28;20509;-74
2023/09/11 03:37:08;;;;;;;266.20;75.65;;;18.60;99.90;;;17.72;100.00;101200.84;4956058;28;20046;-75
2023/09/11 03:39:34;;;;;;;343.00;80.90;;;18.60;99.90;;;17.76;100.00;101182.88;4943620;29;20059;-74
2023/09/11 03:41:59;;;;;;;186.63;65.40;;;18.60;99.90;;;17.78;100.00;101186.28;4945635;29;20500;-74
2023/09/11 03:44:25;;;;;;;315.15;76.30;;;18.60;99.90;;;17.77;100.00;101182.75;4944210;29;20035;-74
2023/09/11 03:46:51;;;;;;;173.35;64.50;;;18.60;99.90;;;17.78;100.00;101184.47;4945775;29;20039;-76
2023/09/11 03:49:16;;;;;;;;;;;18.60;99.90;;;17.76;100.00;101183.72;4947150;29;20047;-75
2023/09/11 03:51:42;;;;;;;251.25;72.15;;;18.60;99.90;;;17.70;100.00;101178.81;4944216;29;19990;-74
2023/09/11 03:54:11;;;;;;;211.65;71.05;;;18.60;99.90;;;17.69;100.00;101179.78;4945069;29;20107;-74
2023/09/11 03:56:37;;;;;;;171.25;63.60;;;18.60;99.90;;;17.74;100.00;101176.78;4944338;29;20242;-75
2023/09/11 03:59:03;;;;;;;170.15;63.25;;;18.60;99.90;;;17.77;100.00;101182.75;4945209;29;20066;-75
2023/09/11 04:01:28;;;;;;;191.63;67.20;;;18.60;99.90;;;17.82;100.00;101188.66;4946786;28;20061;-75
2023/09/11 04:03:54;;;;;;;204.50;67.75;;;18.60;99.90;;;17.82;100.00;101180.66;4943901;28;20124;-75
2023/09/11 04:06:19;;;;;;;176.77;65.95;;;18.60;99.90;;;17.84;100.00;101175.22;4941952;29;20028;-75
2023/09/11 04:08:45;;;;;;;192.65;65.45;;;18.60;99.90;;;17.83;100.00;101171.69;4943755;29;20084;-76
2023/09/11 04:11:11;;;;;;;178.68;64.30;;;18.60;99.90;;;17.86;100.00;101181.31;4958933;28;20032;-74
2023/09/11 04:13:40;;;;;;;195.68;68.53;;;18.60;99.90;;;17.85;100.00;101184.91;4943528;29;20036;-74
2023/09/11 04:16:06;;;;;;;198.77;67.32;;;18.60;99.90;;;17.81;100.00;101178.91;4943901;29;20401;-75
2023/09/11 04:18:32;;;;;;;173.77;66.60;;;18.60;99.90;;;17.80;100.00;101171.03;4944641;29;20028;-76
2023/09/11 04:21:05;;;;;;;187.50;67.18;;;18.60;99.90;;;17.83;100.00;101178.84;4945026;29;20038;-74
2023/09/11 04:23:33;;;;;;;236.20;72.80;;;18.60;99.90;;;17.78;100.00;101175.63;4947473;28;20401;-74
2023/09/11 04:25:59;;;;;;;216.73;71.00;;;18.60;99.90;;;17.80;100.00;101174.56;4944461;29;20159;-74
2023/09/11 04:28:24;;;;;;;165.32;65.20;;;18.60;99.90;;;17.83;100.00;101171.69;4961608;28;20126;-75
2023/09/11 04:30:50;;;;;;;163.30;63.60;;;18.60;99.90;;;17.86;100.00;101172.44;4944961;29;20046;-74
2023/09/11 04:33:21;;;;;;;165.38;62.63;;;18.70;99.90;;;17.89;100.00;101170.41;4942590;28;20035;-75
2023/09/11 04:35:46;;;;;;;180.68;66.00;;;18.70;99.90;;;17.94;100.00;101168.28;4946212;29;20418;-74
2023/09/11 04:38:12;;;;;;;226.32;69.13;;;18.70;99.90;;;17.98;100.00;101171.59;4945021;29;20125;-73
2023/09/11 04:40:38;;;;;;;198.27;65.68;;;18.70;99.90;;;17.97;100.00;101168.06;4944689;28;20179;-74
2023/09/11 04:43:04;;;;;;;180.88;63.88;;;18.70;99.90;;;17.99;100.00;101165.28;4944825;28;20405;-75
2023/09/11 04:45:30;;;;;;;270.38;78.85;;;18.70;99.90;;;17.95;100.00;101158.50;4943468;29;20034;-73
2023/09/11 04:47:55;;;;;;;206.80;71.65;;;18.80;99.90;;;17.92;100.00;101156.88;4945692;29;20062;-73
2023/09/11 04:50:21;;;;;;;235.43;75.93;;;18.70;99.90;;;17.92;100.00;101161.34;4942621;28;20114;-74
2023/09/11 04:52:47;;;;;;;228.27;72.32;;;18.80;99.90;;;17.92;100.00;101158.69;4944128;28;20047;-74
2023/09/11 04:55:12;;;;;;;211.82;72.65;;;18.70;99.90;;;17.91;100.00;101154.34;4941984;28;20047;-73
2023/09/11 04:57:40;;;;;;;195.70;67.63;;;18.70;99.90;;;17.72;100.00;101152.91;4944366;28;20036;-75
2023/09/11 05:00:10;;;;;;;170.25;64.57;;;18.60;99.90;;;17.74;100.00;101159.00;4961435;28;20020;-73
2023/09/11 05:02:36;;;;;;;221.27;69.05;;;18.60;99.90;;;17.78;100.00;101152.50;4942385;29;20553;-73
2023/09/11 05:05:03;;;;;;;172.70;61.38;;;18.60;99.90;;;17.81;100.00;101154.09;4943884;29;20035;-74
2023/09/11 05:07:29;;;;;;;180.68;65.70;;;18.60;99.90;;;17.85;100.00;101152.09;4945160;29;20035;-73
2023/09/11 05:09:55;;;;;;;214.00;64.65;;;18.60;99.90;;;17.68;100.00;101151.44;4942987;28;20035;-73
2023/09/11 05:12:21;;;;;;;182.50;62.72;;;18.60;99.90;;;17.68;100.00;101148.75;4945722;29;20035;-74
2023/09/11 05:14:47;;;;;;;220.00;67.60;;;18.60;99.90;;;17.63;100.00;101143.75;4942867;28;20055;-73
2023/09/11 05:17:12;;;;;;;220.65;68.15;;;18.60;99.90;;;17.73;100.00;101153.78;4959636;28;20460;-76
2023/09/11 05:19:38;;;;;;;227.85;67.38;;;18.60;99.90;;;17.78;100.00;101155.16;4941496;29;20490;-74
2023/09/11 05:22:04;;;;;;;207.93;65.68;;;18.60;99.90;;;17.85;100.00;101157.44;4958737;28;20024;-74
2023/09/11 05:24:31;;;;;;;199.23;65.70;;;18.60;99.90;;;17.90;100.00;101161.47;4941808;28;20035;-74
2023/09/11 05:26:59;;;;;;;198.73;64.03;;;18.70;99.90;;;17.96;100.00;101171.69;4943340;28;20488;-74
2023/09/11 05:29:25;;;;;;;235.15;68.25;;;18.70;99.90;;;17.96;100.00;101168.19;4960556;28;20409;-74
2023/09/11 05:31:51;;;;;;;218.48;64.18;;;18.70;99.90;;;17.84;100.00;101167.25;4957589;28;20043;-74
2023/09/11 05:34:17;;;;;;;202.57;64.03;;;18.70;99.90;;;17.88;100.00;101157.19;4944893;29;20036;-73
2023/09/11 05:36:42;;;;;;;185.65;60.95;;;18.70;99.90;;;17.90;100.00;101156.13;4943654;29;20039;-74
2023/09/11 05:39:08;;;;;;;201.30;64.03;;;18.70;99.90;;;17.85;100.00;101157.44;4960697;28;20171;-73
2023/09/11 05:41:35;;;;;;;190.15;60.83;;;18.70;99.90;;;17.80;100.00;101158.56;4942464;28;20039;-74
2023/09/11 05:44:01;;;;;;;209.48;64.38;;;18.70;99.90;;;17.81;100.00;101160.25;4941172;29;20031;-74
2023/09/11 05:46:28;;;;;;;193.98;61.97;;;18.70;99.90;;;17.94;100.00;101164.75;4945896;28;20055;-74
2023/09/11 05:48:53;;;;;;;157.98;55.15;;;18.70;99.90;;;18.02;100.00;101165.09;4943032;29;20166;-75
2023/09/11 05:51:19;;;;;;;172.65;56.63;;;18.80;99.90;;;18.10;100.00;101161.84;4942853;28;20075;-75
2023/09/11 05:53:45;;;;;;;161.85;56.60;;;18.80;99.90;;;18.13;100.00;101156.31;4943607;29;20028;-73
2023/09/11 05:56:11;;;;;;;171.98;57.28;;;18.90;99.90;;;18.19;100.00;101162.06;4940541;28;20046;-73
2023/09/11 05:58:37;;;;;;;185.27;58.65;;;19.00;99.90;;;18.22;100.00;101166.31;4957417;28;20031;-73
2023/09/11 06:01:03;;;;;;;172.93;58.25;;;19.00;99.90;;;18.29;100.00;101174.72;4942384;28;20616;-73
2023/09/11 06:03:32;;;;;;;166.77;56.70;;;19.00;99.90;;;18.34;100.00;101167.25;4951149;29;20034;-73
2023/09/11 06:05:59;;;;;;;188.27;58.25;;;19.10;99.90;;;18.41;100.00;101172.03;4948081;28;20043;-74
2023/09/11 06:08:25;;;;;;;191.48;60.38;;;19.10;99.90;;;18.40;100.00;101170.34;4959184;28;20086;-75
2023/09/11 06:10:51;;;;;;;186.68;59.55;;;19.20;99.90;;;18.45;100.00;101172.66;4942382;29;20718;-73
2023/09/11 06:13:16;;;;;;;181.25;58.97;;;19.20;99.90;;;18.47;100.00;101176.06;4942051;29;20059;-73
2023/09/11 06:15:42;;;;;;;194.68;58.95;;;19.20;99.90;;;18.44;100.00;101181.59;4939195;28;20028;-74
2023/09/11 06:18:08;;;;;;;200.93;64.70;;;19.20;99.90;;;18.47;100.00;101178.72;4943341;28;20028;-74
2023/09/11 06:20:34;;;;;;;182.40;60.67;;;19.20;99.90;;;18.55;100.00;101178.16;4957498;28;20062;-72
2023/09/11 06:23:00;;;;;;;195.10;61.55;;;19.30;99.90;;;18.64;100.00;101178.34;4944858;28;20027;-73
2023/09/11 06:25:26;;;;;;;198.43;64.25;;;19.40;99.90;;;18.72;100.00;101179.59;4973763;23;20055;-75
2023/09/11 06:27:52;;;;;;;195.35;63.17;;;19.40;99.90;;;18.81;100.00;101176.28;4932068;29;20035;-76
2023/09/11 06:30:18;;;;;;;167.55;59.38;;;19.50;99.90;;;18.89;100.00;101183.72;4951174;29;20055;-75
2023/09/11 06:32:44;;;;;;;159.23;56.70;;;19.60;99.90;;;18.97;100.00;101181.34;4949573;28;20035;-76
2023/09/11 06:35:10;;;;;;;157.05;59.67;;;19.70;99.90;;;19.04;100.00;101180.75;4945649;29;20405;-74
2023/09/11 06:37:37;;;;;;;170.40;59.33;;;19.70;99.90;;;19.17;100.00;101174.50;4924360;29;20047;-75
2023/09/11 06:40:07;;;;;;;174.20;61.45;;;19.80;99.90;;;19.25;100.00;101177.44;4923538;29;20040;-75
2023/09/11 06:42:34;;;;;;;146.73;55.10;;;19.90;99.90;;;19.31;100.00;101178.75;4925984;29;20044;-75
2023/09/11 06:44:59;;;;;;;147.23;55.65;;;20.00;99.90;;;19.40;100.00;101176.25;4923349;29;20039;-75
2023/09/11 06:47:25;;;;;;;155.13;57.55;;;20.10;99.90;;;19.44;100.00;101167.03;4923284;29;20035;-75
2023/09/11 06:49:51;;;;;;;164.95;59.13;;;20.10;99.90;;;19.44;100.00;101175.06;4913944;29;20039;-77
2023/09/11 06:52:17;;;;;;;164.68;58.63;;;20.10;99.90;;;19.46;100.00;101178.47;4923449;29;20035;-76
2023/09/11 06:54:43;;;;;;;157.80;57.78;;;20.20;99.90;;;19.51;100.00;101178.09;4938707;28;20078;-76
2023/09/11 06:57:08;;;;;;;180.23;62.42;;;20.20;99.90;;;19.56;100.00;101177.75;4921865;29;20420;-76
2023/09/11 06:59:34;;;;;;;150.43;58.78;;;20.20;99.90;;;19.66;100.00;101182.25;4937770;29;20035;-74
2023/09/11 07:02:00;;;;;;;161.50;57.92;;;20.30;99.90;;;19.81;100.00;101185.59;4925008;29;20039;-75
2023/09/11 07:04:25;;;;;;;155.95;57.28;;;20.40;99.90;;;19.97;100.00;101189.72;4921905;29;20059;-75
2023/09/11 07:06:51;;;;;;;171.60;59.83;;;20.50;99.90;;;20.02;100.00;101187.53;4920750;29;20083;-75
2023/09/11 07:09:17;;;;;;;169.45;60.70;;;20.60;99.90;;;20.02;99.75;101182.19;4919444;29;20489;-76
2023/09/11 07:11:43;;;;;;;167.57;58.22;;;20.70;99.90;;;20.05;99.77;101184.63;4920623;29;20035;-76
2023/09/11 07:14:12;;;;;;;146.02;57.88;;;20.70;99.90;;;20.17;98.86;101183.66;4924709;29;20194;-75
2023/09/11 07:16:39;;;;;;;121.78;52.28;;;20.80;99.90;;;20.42;97.55;101185.19;4923925;29;20036;-75
2023/09/11 07:19:04;;;;;;;146.60;57.58;;;21.00;99.90;;;20.85;95.74;101189.72;4937109;28;20070;-75
2023/09/11 07:21:30;;;;;;;120.70;53.85;;;21.30;99.90;;;21.22;93.34;101185.81;4921593;29;20054;-75
2023/09/11 07:23:56;;;;;;;127.32;55.33;;;21.50;99.90;;;21.28;91.10;101183.47;4939091;28;20039;-75
2023/09/11 07:26:22;;;;;;;133.45;54.65;;;21.60;99.90;;;21.24;89.64;101183.84;4920133;29;20032;-75
2023/09/11 07:28:56;;;;;;;137.50;55.53;;;21.70;99.90;;;21.36;89.49;101179.28;4921069;29;20039;-74
2023/09/11 07:31:22;;;;;;;124.32;54.05;;;21.90;99.90;;;21.45;89.07;101186.59;4937805;28;20030;-76
2023/09/11 07:33:48;;;;;;;108.93;51.58;;;22.00;99.90;;;22.04;87.46;101193.09;4919420;29;20521;-75
2023/09/11 07:36:14;;;;;;;87.43;47.05;;;22.70;99.90;;;23.76;81.22;101209.72;4923022;29;20032;-76
2023/09/11 07:38:44;;;;;;;85.55;46.45;;;23.60;99.90;;;24.29;76.11;101209.06;4925260;29;20028;-75
2023/09/11 07:41:18;;;;;;;88.38;47.35;;;24.30;99.90;;;24.36;75.13;101214.69;4921529;29;20513;-75
2023/09/11 07:43:50;;;;;;;97.18;49.72;;;24.70;99.90;;;24.67;73.93;101214.44;4921216;29;20090;-76
2023/09/11 07:46:22;;;;;;;88.65;49.08;;;24.80;99.90;;;24.59;73.19;101212.50;4920230;29;20111;-76
2023/09/11 07:48:49;;;;;;;94.78;49.65;;;24.80;99.90;;;24.35;73.39;101207.63;4938132;29;20044;-75
2023/09/11 07:51:15;;;;;;;94.65;48.97;;;24.70;99.90;;;24.26;72.91;101203.16;4921296;29;20039;-75
2023/09/11 07:53:41;;;;;;;91.63;48.50;;;24.70;99.90;;;24.27;73.89;101205.69;4938019;29;20437;-75
2023/09/11 07:56:08;;;;;;;86.75;47.38;;;24.80;99.90;;;25.32;70.84;101200.78;4937134;29;20028;-75
2023/09/11 07:58:35;;;;;;;76.97;44.72;;;25.80;99.90;;;26.64;67.88;101216.69;4921124;29;20494;-76
2023/09/11 08:01:01;;;;;;;82.30;46.42;;;26.80;99.90;;;27.42;65.09;101218.16;4937256;28;20058;-76
2023/09/11 08:03:27;;;;;;;70.55;42.22;;;27.80;99.90;;;28.61;62.49;101233.56;4920591;29;20039;-76
2023/09/11 08:05:55;;;;;;;71.70;43.38;;;28.90;99.90;;;29.80;58.82;101236.75;4922485;29;20056;-75
2023/09/11 08:08:21;;;;;;;65.93;40.75;;;29.80;99.90;;;30.29;57.19;101240.00;4921480;29;20032;-76
2023/09/11 08:10:46;;;;;;;63.97;41.58;;;30.50;99.90;;;30.81;55.60;101245.22;4919663;29;20102;-76
2023/09/11 08:13:12;;;;;;;55.33;37.47;;;30.90;99.90;;;30.99;54.78;101247.50;4922366;29;20039;-76
2023/09/11 08:15:38;;;;;;;51.58;35.95;;;31.40;99.90;;;31.64;53.74;101251.06;4920736;29;20702;-76
2023/09/11 08:18:04;;;;;;;48.60;33.35;;;32.10;99.90;;;32.21;52.27;101248.31;4922590;29;20079;-76
2023/09/11 08:20:29;;;;;;;44.63;31.52;;;32.70;99.90;;;32.75;50.57;101260.31;4921643;29;20063;-76
2023/09/11 08:22:57;;;;;;;47.08;33.28;;;33.20;99.90;;;33.13;49.49;101268.78;4923048;29;20628;-76
2023/09/11 08:25:23;;;;;;;47.63;31.83;;;33.70;99.90;;;33.49;48.68;101273.03;4926996;29;20039;-76
2023/09/11 08:27:49;;;;;;;46.65;33.90;;;34.00;99.90;;;33.63;48.16;101285.66;4925579;29;20024;-76
2023/09/11 08:30:14;;;;;;;50.70;34.75;;;34.10;97.10;;;33.52;47.40;101288.97;4941067;29;20512;-76
2023/09/11 08:32:40;;;;;;;52.72;35.15;;;34.00;98.30;;;33.28;47.36;101277.66;4922362;29;20126;-76
2023/09/11 08:35:06;;;;;;;46.13;32.47;;;33.60;98.50;;;32.57;49.01;101271.75;4924109;29;20709;-80
2023/09/11 08:37:32;;;;;;;41.22;30.98;;;33.40;99.70;;;32.67;48.91;101269.50;4931848;29;20032;-76
2023/09/11 08:39:58;;;;;;;37.80;28.55;;;33.30;98.60;;;32.47;48.45;101278.41;4923912;29;20037;-76
2023/09/11 08:42:23;;;;;;;40.40;28.95;;;33.20;98.80;;;32.64;48.26;101278.09;4924150;29;20040;-77
2023/09/11 08:44:49;;;;;;;34.55;26.63;;;33.20;98.40;;;32.68;47.79;101284.81;4925192;29;20560;-76
2023/09/11 08:47:16;;;;;;;36.70;27.65;;;33.10;98.60;;;32.67;47.46;101283.13;4925972;29;20122;-77
2023/09/11 08:49:47;;;;;;;38.22;27.92;;;33.00;98.10;;;32.34;48.55;101278.34;4925785;29;20028;-76
2023/09/11 08:52:15;;;;;;;37.70;28.23;;;32.80;98.50;;;32.22;48.04;101277.22;4924485;29;20130;-76
2023/09/11 08:54:43;;;;;;;37.67;29.02;;;32.60;96.50;;;31.65;47.99;101263.63;4923637;29;20417;-77
2023/09/11 08:57:14;;;;;;;37.85;27.58;;;31.90;97.60;;;30.76;49.75;101255.81;4940381;28;20603;-76
2023/09/11 08:59:46;;;;;;;36.60;28.00;;;31.50;99.40;;;30.61;50.97;101244.16;4924801;29;20387;-76
2023/09/11 09:02:13;;;;;;;594.80;45.33;;;31.10;99.90;;;30.39;51.50;101237.81;4941107;28;20035;-76
2023/09/11 09:04:41;;;;;;;52.75;25.98;;;30.90;99.90;;;30.18;51.67;101235.84;4924433;29;20123;-75
2023/09/11 09:07:07;;;;;;;38.22;24.27;;;30.50;99.90;;;29.76;52.53;101229.19;4925827;29;20032;-75
2023/09/11 09:09:36;;;;;;;35.25;26.38;;;30.20;99.90;;;29.45;52.82;101233.69;4929671;29;20043;-77
2023/09/11 09:12:04;;;;;;;31.65;24.80;;;29.90;99.90;;;29.32;53.13;101219.91;4943881;29;20032;-76
2023/09/11 09:14:31;;;;;;;34.03;23.45;;;29.70;99.90;;;29.21;53.44;101215.75;4921852;29;20075;-77
2023/09/11 09:16:57;;;;;;;31.42;23.75;;;29.50;99.90;;;28.92;54.38;101213.75;4941250;28;20043;-77
2023/09/11 09:19:25;;;;;;;36.67;25.38;;;29.30;99.90;;;28.80;53.93;101212.47;4924436;29;20123;-76
2023/09/11 09:22:06;;;;;;;36.60;26.65;;;29.10;99.90;;;28.45;54.34;101203.00;4938075;29;20048;-76
2023/09/11 09:24:52;;;;;;;38.97;25.65;;;29.00;99.90;;;28.41;54.93;101197.94;4930143;29;20082;-77
2023/09/11 09:27:20;;;;;;;30.48;22.50;;;28.90;99.90;;;28.47;55.42;101192.81;4929459;29;20118;-77
2023/09/11 09:29:48;;;;;;;33.97;24.33;;;28.90;99.90;;;28.30;55.77;101184.78;4923056;29;20040;-77
2023/09/11 09:32:17;;;;;;;28.48;20.50;;;28.80;99.90;;;28.39;55.62;101180.19;4922495;29;20126;-77
2023/09/11 09:34:49;;;;;;;28.88;20.88;;;28.80;99.90;;;28.47;55.22;101179.28;4924155;29;20044;-77
2023/09/11 09:37:18;;;;;;;30.70;21.73;;;28.90;99.90;;;28.51;54.89;101175.22;4921460;29;20513;-78
2023/09/11 09:39:50;;;;;;;25.30;18.83;;;28.90;99.90;;;28.55;54.25;101176.56;4922703;29;20058;-77
2023/09/11 09:42:20;;;;;;;31.77;19.80;;;28.90;99.90;;;28.54;54.92;101177.59;4939611;29;20491;-77
2023/09/11 09:44:52;;;;;;;26.25;18.67;;;28.90;99.90;;;28.39;54.89;101170.19;4938814;28;20074;-77
2023/09/11 09:47:19;;;;;;;28.88;20.50;;;28.90;99.90;;;28.34;55.02;101161.75;4939093;28;20039;-77
2023/09/11 09:49:55;;;;;;;23.67;18.88;;;28.90;99.90;;;28.48;54.26;101162.88;4923579;29;20071;-77